Main page
METAR-TAF:

METAR-TAF

Airports :

Jorge Chávez International Airport

Lima, Peru

latitude: 12-00S, longitude: 077-07W, elevation: 12 m

Current weather observation

The report was made 17 minutes ago, at 08:00 UTC
Wind 9 kt from the South
Temperature 24°C
Humidity 78%
Pressure 1012 hPa
Visibility 10 km or more
no clouds below 1500 m and no cumulonimbus

METAR: SPJC 030800Z 17009KT CAVOK 24/20 Q1012 NOSIG RMK PP000

Time: 03:17 (08:17 UTC)

Forecast

The report was made 3 hours and 17 minutes ago, at 05:00 UTC
Forecast valid from 03 at 06 UTC to 04 at 06 UTC
Wind 7 kt from the South
Visibility 10 km or more
no clouds below 1500 m and no cumulonimbus
Becoming
from 03 at 18 UTC to 03 at 20 UTC
Wind 15 kt from the South

TAF: SPJC 030500Z 0306/0406 18007KT CAVOK TX29/0319Z TN23/0311Z BECMG 0318/0320 18015KT

Weather observations and forecasts of more than 4000 airports (METAR and TAF reports).

The available stations are represented by yellow and red dots on the map.

Hover mouse over dot to see the name of the station.

Then click to see weather observations and forecasts.

To change the map : click on the green buttons with a black cross to zoom in, on the green button with a dash to zoom out, or on the green arrows for adjacent maps.


METAR-TAF: